createdAt,value
2019-04-03T00:00:41.286Z,79.10
2019-04-03T00:03:13.541Z,79.10
2019-04-03T00:05:43.441Z,79.30
2019-04-03T00:08:13.168Z,79.70
2019-04-03T00:10:45.718Z,79.80
2019-04-03T00:13:15.516Z,80.20
2019-04-03T00:15:45.327Z,80.10
2019-04-03T00:18:16.577Z,80.80
2019-04-03T00:20:48.225Z,81.40
2019-04-03T00:23:18.590Z,81.70
2019-04-03T00:25:47.655Z,82.10
2019-04-03T00:28:17.236Z,82.00
2019-04-03T00:30:48.856Z,81.80
2019-04-03T00:33:18.598Z,81.80
2019-04-03T00:35:47.796Z,81.90
2019-04-03T00:38:17.036Z,82.30
2019-04-03T00:40:46.676Z,83.20
2019-04-03T00:43:16.216Z,85.60
2019-04-03T00:45:45.556Z,86.60
2019-04-03T00:48:14.741Z,87.60
2019-04-03T00:50:43.796Z,88.10
2019-04-03T00:53:13.355Z,89.00
2019-04-03T00:55:42.976Z,89.70
2019-04-03T00:58:38.876Z,90.40
2019-04-03T01:01:13.121Z,90.30
2019-04-03T01:03:42.929Z,90.40
2019-04-03T01:06:12.382Z,90.60
2019-04-03T01:08:45.743Z,90.70
2019-04-03T01:11:15.657Z,90.70
2019-04-03T01:13:45.276Z,91.00
2019-04-03T01:16:15.182Z,91.40
2019-04-03T01:18:45.276Z,91.60
2019-04-03T01:21:15.223Z,92.50
2019-04-03T01:23:44.855Z,92.90
2019-04-03T01:26:14.316Z,93.60
2019-04-03T01:28:43.835Z,93.90
2019-04-03T01:31:14.858Z,94.20
2019-04-03T01:33:46.081Z,94.50
2019-04-03T01:36:17.555Z,94.60
2019-04-03T01:38:47.908Z,94.60
2019-04-03T01:41:18.871Z,94.60
2019-04-03T01:43:53.376Z,94.70
2019-04-03T01:46:21.996Z,94.80
2019-04-03T01:48:51.115Z,94.80
2019-04-03T01:51:20.555Z,94.90
2019-04-03T01:53:49.627Z,95.30
2019-04-03T01:56:19.362Z,95.50
2019-04-03T01:58:49.476Z,95.70
2019-04-03T02:01:18.663Z,96.00
2019-04-03T02:03:48.123Z,96.20
2019-04-03T02:06:17.949Z,96.50
2019-04-03T02:08:47.755Z,96.90
2019-04-03T02:11:18.606Z,97.20
2019-04-03T02:13:50.995Z,97.50
2019-04-03T02:16:21.409Z,97.60
2019-04-03T02:18:51.143Z,97.90
2019-04-03T02:21:20.424Z,98.10
2019-04-03T02:23:49.424Z,98.20
2019-04-03T02:26:18.652Z,98.30
2019-04-03T02:28:47.787Z,98.20
2019-04-03T02:31:23.134Z,98.10
2019-04-03T02:33:53.820Z,98.00
2019-04-03T02:36:23.132Z,98.00
2019-04-03T02:38:53.833Z,98.00
2019-04-03T02:41:23.956Z,98.00
2019-04-03T02:43:53.504Z,98.10
2019-04-03T02:46:22.966Z,98.20
2019-04-03T02:48:52.545Z,98.90
2019-04-03T02:51:23.684Z,98.70
2019-04-03T02:53:53.242Z,98.60
2019-04-03T02:56:22.751Z,98.50
2019-04-03T02:58:55.206Z,98.70
2019-04-03T03:01:25.603Z,99.10
2019-04-03T03:03:55.162Z,99.30
2019-04-03T03:06:25.213Z,99.20
2019-04-03T03:08:55.430Z,99.50
2019-04-03T03:11:25.223Z,99.60
2019-04-03T03:13:54.816Z,99.90
2019-04-03T03:16:27.404Z,99.90
2019-04-03T03:19:00.247Z,99.90
2019-04-03T03:21:28.664Z,99.90
2019-04-03T03:23:59.305Z,99.90
2019-04-03T03:26:31.980Z,99.90
2019-04-03T03:29:16.247Z,99.90
2019-04-03T03:32:03.369Z,99.90
2019-04-03T03:34:06.705Z,99.90
2019-04-03T03:36:36.930Z,99.90
2019-04-03T03:39:10.345Z,99.90
2019-04-03T03:41:39.474Z,99.90
2019-04-03T03:44:11.276Z,99.90
2019-04-03T03:46:42.036Z,99.90
2019-04-03T03:49:16.268Z,99.90
2019-04-03T03:51:44.136Z,99.90
2019-04-03T03:54:16.963Z,99.90
2019-04-03T03:56:46.096Z,99.90
2019-04-03T03:59:18.176Z,99.90
2019-04-03T04:01:47.804Z,99.90
2019-04-03T04:04:17.230Z,99.90
2019-04-03T04:06:47.633Z,99.90
2019-04-03T04:09:18.572Z,99.90
2019-04-03T04:11:48.780Z,99.90
2019-04-03T04:14:20.832Z,99.90
2019-04-03T04:16:49.677Z,99.90
2019-04-03T04:19:19.376Z,99.90
2019-04-03T04:21:48.797Z,99.90
2019-04-03T04:24:21.356Z,99.90
2019-04-03T04:26:50.649Z,99.90
2019-04-03T04:29:19.917Z,99.90
2019-04-03T04:31:49.656Z,99.90
2019-04-03T04:34:19.572Z,99.90
2019-04-03T04:36:49.098Z,99.90
2019-04-03T04:39:19.401Z,99.90
2019-04-03T04:41:48.717Z,99.90
2019-04-03T04:44:18.476Z,99.90
2019-04-03T04:46:48.102Z,99.90
2019-04-03T04:49:18.936Z,99.90
2019-04-03T04:51:49.900Z,99.90
2019-04-03T04:54:19.155Z,99.90
2019-04-03T04:56:48.536Z,99.90
2019-04-03T04:59:20.816Z,99.90
2019-04-03T05:01:50.511Z,99.90
2019-04-03T05:04:20.444Z,99.90
2019-04-03T05:06:51.655Z,99.90
2019-04-03T05:09:20.885Z,99.90
2019-04-03T05:11:50.363Z,99.90
2019-04-03T05:14:20.265Z,99.90
2019-04-03T05:16:49.723Z,99.90
2019-04-03T05:19:19.637Z,99.90
2019-04-03T05:21:50.760Z,99.90
2019-04-03T05:24:23.114Z,99.90
2019-04-03T05:26:53.118Z,99.90
2019-04-03T05:29:22.516Z,99.90
2019-04-03T05:31:51.856Z,99.90
2019-04-03T05:34:21.091Z,99.90
2019-04-03T05:36:50.176Z,99.90
2019-04-03T05:39:20.332Z,99.90
2019-04-03T05:41:50.137Z,99.90
2019-04-03T05:44:19.713Z,99.90
2019-04-03T05:46:49.235Z,99.90
2019-04-03T05:49:19.369Z,99.90
2019-04-03T05:51:49.576Z,99.90
2019-04-03T05:54:18.597Z,99.90
2019-04-03T05:56:48.057Z,99.90
2019-04-03T05:59:19.335Z,99.90
2019-04-03T06:01:48.568Z,99.90
2019-04-03T06:04:17.888Z,99.90
2019-04-03T06:06:47.506Z,99.90
2019-04-03T06:09:17.244Z,99.90
2019-04-03T06:11:47.105Z,99.90
2019-04-03T06:14:18.762Z,99.90
2019-04-03T06:16:48.716Z,99.90
2019-04-03T06:19:18.338Z,99.90
2019-04-03T06:21:50.396Z,99.90
2019-04-03T06:24:19.795Z,99.70
2019-04-03T06:26:48.836Z,98.80
2019-04-03T06:29:18.944Z,97.60
2019-04-03T06:31:49.688Z,96.90
2019-04-03T06:34:20.739Z,96.20
2019-04-03T06:36:51.011Z,95.70
2019-04-03T06:39:22.989Z,94.70
2019-04-03T06:41:52.341Z,93.20
2019-04-03T06:44:22.681Z,91.70
2019-04-03T06:46:54.826Z,89.60
2019-04-03T06:49:24.136Z,86.30
2019-04-03T06:51:53.505Z,83.30
2019-04-03T06:54:23.301Z,80.00
2019-04-03T06:56:53.128Z,79.80
2019-04-03T06:59:22.588Z,79.10
2019-04-03T07:01:52.879Z,80.50
2019-04-03T07:04:23.575Z,78.90
2019-04-03T07:06:55.782Z,77.60
2019-04-03T07:09:34.131Z,79.30
2019-04-03T07:11:57.203Z,81.40
2019-04-03T07:14:28.910Z,82.70
2019-04-03T07:17:00.291Z,79.60
2019-04-03T07:19:29.018Z,75.00
2019-04-03T07:21:58.889Z,71.90
2019-04-03T07:24:31.881Z,67.00
2019-04-03T07:27:00.858Z,63.70
2019-04-03T07:29:30.119Z,62.60
2019-04-03T07:31:59.375Z,64.20
2019-04-03T07:34:28.606Z,66.00
2019-04-03T07:36:58.096Z,66.40
2019-04-03T07:39:28.928Z,69.50
2019-04-03T07:42:03.728Z,65.60
2019-04-03T07:44:35.003Z,64.10
2019-04-03T07:47:04.731Z,64.10
2019-04-03T07:49:34.239Z,63.00
2019-04-03T07:52:04.180Z,63.40
2019-04-03T07:54:33.201Z,60.90
2019-04-03T07:57:02.457Z,61.80
2019-04-03T07:59:35.121Z,62.60
2019-04-03T08:02:04.242Z,63.50
2019-04-03T08:04:33.346Z,66.20
2019-04-03T08:07:02.539Z,64.30
2019-04-03T08:09:31.563Z,65.70
2019-04-03T08:12:03.304Z,68.50
2019-04-03T08:14:31.818Z,65.30
2019-04-03T08:17:00.859Z,64.20
2019-04-03T08:19:33.399Z,65.70
2019-04-03T08:22:02.561Z,66.40
2019-04-03T08:24:35.327Z,65.30
2019-04-03T08:27:07.768Z,66.50
2019-04-03T08:29:37.974Z,67.50
2019-04-03T08:32:06.676Z,68.90
2019-04-03T08:34:36.457Z,67.50
2019-04-03T08:37:09.717Z,67.00
2019-04-03T08:39:37.296Z,69.40
2019-04-03T08:42:06.706Z,67.30
2019-04-03T08:44:36.555Z,66.80
2019-04-03T08:47:06.021Z,66.30
2019-04-03T08:49:35.076Z,68.40
2019-04-03T08:52:05.661Z,68.50
2019-04-03T08:54:36.198Z,67.60
2019-04-03T08:57:05.877Z,69.50
2019-04-03T08:59:35.036Z,71.60
2019-04-03T09:02:08.230Z,70.20
2019-04-03T09:04:37.107Z,70.90
2019-04-03T09:07:07.674Z,70.40
2019-04-03T09:09:39.007Z,71.60
2019-04-03T09:12:08.299Z,71.40
2019-04-03T09:14:37.400Z,71.60
2019-04-03T09:17:09.663Z,70.70
2019-04-03T09:19:41.060Z,70.90
2019-04-03T09:22:09.676Z,70.50
2019-04-03T09:24:39.004Z,69.40
2019-04-03T09:27:10.508Z,69.90
2019-04-03T09:29:45.166Z,69.00
2019-04-03T09:32:16.036Z,70.10
2019-04-03T09:34:45.255Z,70.60
2019-04-03T09:37:17.396Z,71.10
2019-04-03T09:39:47.216Z,76.90
2019-04-03T09:42:16.689Z,71.80
2019-04-03T09:44:45.695Z,72.80
2019-04-03T09:47:15.595Z,72.10
2019-04-03T09:49:53.107Z,73.30
2019-04-03T09:52:23.664Z,72.10
2019-04-03T09:54:53.300Z,71.90
2019-04-03T09:57:22.547Z,72.00
2019-04-03T09:59:53.594Z,73.80
2019-04-03T10:02:22.778Z,74.50
2019-04-03T10:04:52.222Z,76.50
2019-04-03T10:07:21.401Z,74.40
2019-04-03T10:09:50.901Z,74.50
2019-04-03T10:12:22.699Z,74.70
2019-04-03T10:14:51.956Z,76.30
2019-04-03T10:17:21.155Z,73.60
2019-04-03T10:19:50.255Z,74.10
2019-04-03T10:22:19.417Z,73.40
2019-04-03T10:24:48.795Z,73.80
2019-04-03T10:27:18.446Z,75.00
2019-04-03T10:29:49.212Z,73.80
2019-04-03T10:32:18.595Z,71.60
2019-04-03T10:34:47.965Z,74.80
2019-04-03T10:37:18.173Z,70.40
2019-04-03T10:39:47.324Z,70.40
2019-04-03T10:42:16.560Z,70.00
2019-04-03T10:44:46.521Z,69.30
2019-04-03T10:47:16.044Z,65.60
2019-04-03T10:49:45.278Z,66.60
2019-04-03T10:52:14.510Z,63.70
2019-04-03T10:54:47.640Z,62.60
2019-04-03T10:57:17.481Z,62.60
2019-04-03T10:59:50.111Z,63.70
2019-04-03T11:02:17.400Z,63.00
2019-04-03T11:04:49.015Z,64.10
2019-04-03T11:07:18.677Z,64.80
2019-04-03T11:09:51.316Z,63.80
2019-04-03T11:12:21.315Z,63.00
2019-04-03T11:14:52.724Z,63.10
2019-04-03T11:17:25.727Z,63.30
2019-04-03T11:19:54.977Z,62.90
2019-04-03T11:22:24.896Z,63.10
2019-04-03T11:24:54.002Z,64.40
2019-04-03T11:27:34.601Z,63.70
2019-04-03T11:29:55.148Z,64.00
2019-04-03T11:32:25.005Z,62.10
2019-04-03T11:34:56.298Z,61.40
2019-04-03T11:37:25.711Z,61.70
2019-04-03T11:40:02.839Z,61.20
2019-04-03T11:42:29.200Z,62.00
2019-04-03T11:44:59.490Z,60.00
2019-04-03T11:47:30.110Z,59.60
2019-04-03T11:50:00.655Z,60.30
2019-04-03T11:52:29.816Z,60.00
2019-04-03T11:54:59.200Z,60.50
2019-04-03T11:57:28.895Z,59.30
2019-04-03T11:59:57.974Z,58.50
2019-04-03T12:02:27.376Z,58.80
2019-04-03T12:04:58.782Z,57.90
2019-04-03T12:07:28.375Z,58.20
2019-04-03T12:09:58.675Z,59.30
2019-04-03T12:12:27.875Z,58.30
2019-04-03T12:14:57.736Z,58.80
2019-04-03T12:17:29.314Z,58.80
2019-04-03T12:20:02.340Z,58.40
2019-04-03T12:22:34.099Z,57.10
2019-04-03T12:25:03.163Z,56.90
2019-04-03T12:27:35.143Z,56.60
2019-04-03T12:30:03.107Z,57.10
2019-04-03T12:32:39.306Z,57.30
2019-04-03T12:35:03.702Z,56.10
2019-04-03T12:37:33.142Z,57.00
2019-04-03T12:40:03.576Z,56.60
2019-04-03T12:42:33.495Z,57.00
2019-04-03T12:45:03.019Z,57.10
2019-04-03T12:47:32.059Z,57.60
2019-04-03T12:50:01.202Z,57.10
2019-04-03T12:52:31.160Z,57.30
2019-04-03T12:55:00.836Z,57.70
2019-04-03T12:57:33.390Z,58.00
2019-04-03T13:00:02.492Z,57.90
2019-04-03T13:02:37.989Z,58.10
2019-04-03T13:05:11.030Z,56.40
2019-04-03T13:07:41.626Z,55.60
2019-04-03T13:10:12.240Z,55.00
2019-04-03T13:12:41.926Z,55.20
2019-04-03T13:15:14.656Z,56.30
2019-04-03T13:17:44.999Z,56.00
2019-04-03T13:20:16.682Z,54.70
2019-04-03T13:22:46.399Z,53.50
2019-04-03T13:25:20.233Z,54.30
2019-04-03T13:27:51.028Z,54.30
2019-04-03T13:30:20.480Z,54.90
2019-04-03T13:32:59.558Z,53.20
2019-04-03T13:35:23.459Z,53.60
2019-04-03T13:37:55.052Z,52.50
2019-04-03T13:40:24.100Z,51.90
2019-04-03T13:42:53.334Z,51.30
2019-04-03T13:45:22.544Z,51.70
2019-04-03T13:47:52.095Z,50.60
2019-04-03T13:50:22.583Z,50.80
2019-04-03T13:52:52.695Z,51.30
2019-04-03T13:55:27.890Z,50.10
2019-04-03T13:57:55.859Z,50.30
2019-04-03T14:00:25.465Z,48.80
2019-04-03T14:02:57.020Z,48.80
2019-04-03T14:05:36.980Z,48.20
2019-04-03T14:08:21.446Z,47.50
2019-04-03T14:10:50.908Z,48.30
2019-04-03T14:13:20.385Z,48.70
2019-04-03T14:15:49.487Z,49.40
2019-04-03T14:18:22.039Z,50.00
2019-04-03T14:20:56.001Z,49.50
2019-04-03T14:23:26.574Z,50.10
2019-04-03T14:26:04.079Z,50.90
2019-04-03T14:28:27.878Z,50.50
2019-04-03T14:30:57.053Z,51.20
2019-04-03T14:33:26.844Z,51.90
2019-04-03T14:35:59.458Z,52.90
2019-04-03T14:38:46.917Z,53.00
2019-04-03T14:41:18.778Z,54.00
2019-04-03T14:43:47.217Z,55.20
2019-04-03T14:46:18.053Z,56.10
2019-04-03T14:48:48.462Z,57.90
2019-04-03T14:51:37.976Z,59.10
2019-04-03T14:54:14.242Z,59.70
2019-04-03T14:56:43.433Z,59.10
2019-04-03T14:59:13.993Z,59.40
2019-04-03T15:01:52.246Z,62.60
2019-04-03T15:04:36.476Z,66.40
2019-04-03T15:07:12.609Z,70.90
2019-04-03T15:09:59.406Z,75.80
2019-04-03T15:12:47.766Z,80.10
2019-04-03T15:15:17.358Z,85.40
2019-04-03T15:17:48.046Z,91.60
2019-04-03T15:20:24.628Z,94.50
2019-04-03T15:23:10.732Z,96.80
2019-04-03T15:25:42.599Z,98.60
2019-04-03T15:28:15.163Z,99.20
2019-04-03T15:30:44.453Z,98.30
2019-04-03T15:33:17.072Z,97.10
2019-04-03T15:36:07.934Z,95.30
2019-04-03T15:38:35.126Z,93.90
2019-04-03T15:41:06.834Z,92.90
2019-04-03T15:43:36.083Z,91.50
2019-04-03T15:46:05.315Z,90.50
2019-04-03T15:48:53.466Z,90.30
2019-04-03T15:51:22.415Z,90.50
2019-04-03T15:53:51.555Z,87.90
2019-04-03T15:56:21.043Z,86.10
2019-04-03T15:58:51.532Z,87.90
2019-04-03T16:01:22.268Z,86.80
2019-04-03T16:04:05.808Z,86.30
2019-04-03T16:06:36.720Z,85.90
2019-04-03T16:09:09.262Z,86.50
2019-04-03T16:11:39.063Z,85.50
2019-04-03T16:14:09.620Z,85.50
2019-04-03T16:16:50.586Z,84.60
2019-04-03T16:19:27.133Z,85.10
2019-04-03T16:21:58.485Z,84.90
2019-04-03T16:24:28.289Z,84.90
2019-04-03T16:26:58.544Z,84.40
2019-04-03T16:29:31.364Z,84.50
2019-04-03T16:32:16.016Z,85.00
2019-04-03T16:34:53.454Z,85.60
2019-04-03T16:37:22.927Z,86.40
2019-04-03T16:39:52.701Z,86.80
2019-04-03T16:42:21.762Z,87.70
2019-04-03T16:44:51.993Z,88.00
2019-04-03T16:47:21.313Z,88.30
2019-04-03T16:49:54.284Z,88.00
2019-04-03T16:52:24.942Z,87.70
2019-04-03T16:54:54.619Z,88.40
2019-04-03T16:57:23.707Z,88.30
2019-04-03T16:59:54.101Z,87.80
2019-04-03T17:02:24.771Z,87.80
2019-04-03T17:04:55.381Z,88.10
2019-04-03T17:07:25.290Z,88.50
2019-04-03T17:09:55.061Z,89.70
2019-04-03T17:12:24.841Z,90.60
2019-04-03T17:14:54.948Z,91.00
2019-04-03T17:17:25.183Z,91.60
2019-04-03T17:19:55.586Z,92.10
2019-04-03T17:22:25.821Z,92.90
2019-04-03T17:24:56.514Z,93.00
2019-04-03T17:27:29.219Z,93.70
2019-04-03T17:29:58.787Z,93.60
2019-04-03T17:32:29.914Z,93.90
2019-04-03T17:35:08.825Z,94.10
2019-04-03T17:37:38.416Z,94.20
2019-04-03T17:40:12.157Z,94.40
2019-04-03T17:42:41.095Z,94.80
2019-04-03T17:45:11.155Z,95.00
2019-04-03T17:47:40.434Z,94.90
2019-04-03T17:50:11.735Z,94.90
2019-04-03T17:52:40.955Z,94.70
2019-04-03T17:55:11.536Z,94.60
2019-04-03T17:57:41.002Z,94.50
2019-04-03T18:00:26.492Z,94.60
2019-04-03T18:02:57.103Z,94.30
2019-04-03T18:05:28.077Z,94.40
2019-04-03T18:07:58.872Z,94.20
2019-04-03T18:10:35.796Z,94.50
2019-04-03T18:13:10.115Z,94.30
2019-04-03T18:15:39.676Z,94.70
2019-04-03T18:18:09.954Z,94.90
2019-04-03T18:20:40.054Z,95.00
2019-04-03T18:23:10.750Z,95.20
2019-04-03T18:25:40.862Z,95.40
2019-04-03T18:28:10.217Z,95.70
2019-04-03T18:30:42.228Z,96.00
2019-04-03T18:33:10.656Z,96.60
2019-04-03T18:35:42.420Z,96.80
2019-04-03T18:38:11.997Z,97.30
2019-04-03T18:40:41.595Z,97.60
2019-04-03T18:43:13.642Z,97.90
2019-04-03T18:45:43.324Z,98.20
2019-04-03T18:48:12.762Z,98.50
2019-04-03T18:50:44.124Z,99.00
2019-04-03T18:53:13.552Z,99.30
2019-04-03T18:55:45.340Z,99.70
2019-04-03T18:58:13.958Z,99.90
2019-04-03T19:00:43.046Z,99.90
2019-04-03T19:03:12.166Z,99.90
2019-04-03T19:05:42.805Z,99.90
2019-04-03T19:08:17.784Z,99.90
2019-04-03T19:10:48.444Z,99.90
2019-04-03T19:13:17.828Z,99.90
2019-04-03T19:15:47.257Z,99.90
2019-04-03T19:18:19.777Z,99.90
2019-04-03T19:20:46.977Z,99.90
2019-04-03T19:23:15.956Z,99.90
2019-04-03T19:25:46.185Z,99.90
2019-04-03T19:28:17.617Z,99.90
2019-04-03T19:30:46.745Z,99.90
2019-04-03T19:33:17.543Z,99.90
2019-04-03T19:35:46.761Z,99.90
2019-04-03T19:38:16.398Z,99.90
2019-04-03T19:40:45.964Z,99.90
2019-04-03T19:43:15.487Z,99.90
2019-04-03T19:45:45.042Z,99.90
2019-04-03T19:48:14.454Z,99.90
2019-04-03T19:50:44.064Z,99.90
2019-04-03T19:53:14.538Z,99.90
2019-04-03T19:55:46.099Z,99.90
2019-04-03T19:58:15.584Z,99.90
2019-04-03T20:00:45.600Z,99.90
2019-04-03T20:03:15.093Z,99.90
2019-04-03T20:05:50.318Z,99.90
2019-04-03T20:08:22.569Z,99.90
2019-04-03T20:10:52.660Z,99.90
2019-04-03T20:13:22.240Z,99.90
2019-04-03T20:15:53.744Z,99.90
2019-04-03T20:18:22.288Z,99.90
2019-04-03T20:20:51.982Z,99.90
2019-04-03T20:23:26.642Z,99.90
2019-04-03T20:25:59.618Z,99.90
2019-04-03T20:28:31.659Z,99.90
2019-04-03T20:31:01.403Z,99.90
2019-04-03T20:33:32.120Z,99.90
2019-04-03T20:36:01.228Z,99.90
2019-04-03T20:38:31.325Z,99.90
2019-04-03T20:41:03.243Z,99.90
2019-04-03T20:43:32.071Z,99.90
2019-04-03T20:46:03.879Z,99.90
2019-04-03T20:48:33.693Z,99.90
2019-04-03T20:51:02.915Z,99.90
2019-04-03T20:53:34.264Z,99.90
2019-04-03T20:56:03.389Z,99.90
2019-04-03T20:58:32.586Z,99.90
2019-04-03T21:03:33.096Z,99.90
2019-04-03T21:06:02.172Z,99.90
2019-04-03T21:08:31.724Z,99.90
2019-04-03T21:11:02.218Z,99.90
2019-04-03T21:13:32.206Z,99.90
2019-04-03T21:16:01.732Z,99.90
2019-04-03T21:18:30.972Z,99.90
2019-04-03T21:21:01.614Z,99.90
2019-04-03T21:23:33.282Z,99.90
2019-04-03T21:26:02.097Z,99.90
2019-04-03T21:28:31.173Z,99.90
2019-04-03T21:31:00.423Z,99.90
2019-04-03T21:33:30.766Z,99.90
2019-04-03T21:36:00.274Z,99.90
2019-04-03T21:38:29.286Z,99.90
2019-04-03T21:40:58.318Z,99.90
2019-04-03T21:43:29.231Z,99.90
2019-04-03T21:45:57.983Z,99.90
2019-04-03T21:48:27.115Z,99.90
2019-04-03T21:50:56.547Z,99.90
2019-04-03T21:53:25.509Z,99.90
2019-04-03T21:55:54.462Z,99.90
2019-04-03T21:58:23.530Z,99.90
2019-04-03T22:01:01.442Z,99.90
2019-04-03T22:03:33.625Z,99.90
2019-04-03T22:06:02.905Z,99.90
2019-04-03T22:08:32.304Z,99.90
2019-04-03T22:11:04.574Z,99.90
2019-04-03T22:13:32.921Z,99.90
2019-04-03T22:16:03.156Z,99.90
2019-04-03T22:18:32.895Z,99.90
2019-04-03T22:21:02.554Z,99.90
2019-04-03T22:23:35.933Z,99.90
2019-04-03T22:26:09.571Z,99.90
2019-04-03T22:28:37.319Z,99.90
2019-04-03T22:31:06.837Z,99.90
2019-04-03T22:33:36.255Z,99.90
2019-04-03T22:36:07.957Z,99.90
2019-04-03T22:38:39.276Z,99.90
2019-04-03T22:41:12.261Z,99.90
2019-04-03T22:43:40.355Z,99.90
2019-04-03T22:46:09.858Z,99.90
2019-04-03T22:48:38.917Z,99.90
2019-04-03T22:51:08.117Z,99.90
2019-04-03T22:53:37.935Z,99.90
2019-04-03T22:56:07.195Z,99.90
2019-04-03T22:58:36.539Z,99.90
2019-04-03T23:01:06.526Z,99.90
2019-04-03T23:03:37.596Z,99.90
2019-04-03T23:06:06.957Z,99.90
2019-04-03T23:08:36.436Z,99.90
2019-04-03T23:11:06.236Z,99.90
2019-04-03T23:13:36.254Z,99.90
2019-04-03T23:16:09.635Z,99.90
2019-04-03T23:18:37.556Z,99.90
2019-04-03T23:21:08.438Z,99.90
2019-04-03T23:23:38.195Z,99.90
2019-04-03T23:26:07.839Z,99.90
2019-04-03T23:28:39.636Z,99.90
2019-04-03T23:31:11.166Z,99.90
2019-04-03T23:33:41.397Z,99.90
2019-04-03T23:36:10.876Z,99.90
2019-04-03T23:38:40.416Z,99.90
2019-04-03T23:41:10.575Z,99.90
2019-04-03T23:43:40.436Z,99.90
2019-04-03T23:46:10.436Z,99.90
2019-04-03T23:48:41.235Z,99.90
2019-04-03T23:51:22.590Z,99.90
2019-04-03T23:53:42.837Z,99.90
2019-04-03T23:56:12.376Z,99.90
2019-04-03T23:58:45.375Z,99.90
